sensor_id;sensor_type;location;lat;lon;timestamp;pressure;altitude;pressure_sealevel;temperature;humidity
12077;BME280;12420;42.676;23.262;2023-04-30T00:02:02;94270.13;;;11.99;100.00
12077;BME280;12420;42.676;23.262;2023-04-30T00:04:30;94286.34;;;11.95;100.00
12077;BME280;12420;42.676;23.262;2023-04-30T00:06:57;94268.94;;;11.87;100.00
12077;BME280;12420;42.676;23.262;2023-04-30T00:09:24;94268.50;;;11.83;100.00
12077;BME280;12420;42.676;23.262;2023-04-30T00:11:50;94262.59;;;11.58;100.00
12077;BME280;12420;42.676;23.262;2023-04-30T00:14:17;94279.94;;;11.79;100.00
12077;BME280;12420;42.676;23.262;2023-04-30T00:16:44;94276.22;;;11.77;100.00
12077;BME280;12420;42.676;23.262;2023-04-30T00:19:11;94269.47;;;11.64;100.00
12077;BME280;12420;42.676;23.262;2023-04-30T00:21:39;94273.13;;;11.59;100.00
12077;BME280;12420;42.676;23.262;2023-04-30T00:24:06;94288.97;;;11.51;100.00
12077;BME280;12420;42.676;23.262;2023-04-30T00:26:33;94261.84;;;11.36;100.00
12077;BME280;12420;42.676;23.262;2023-04-30T00:29:00;94276.19;;;11.27;100.00
12077;BME280;12420;42.676;23.262;2023-04-30T00:31:27;94272.06;;;11.20;100.00
12077;BME280;12420;42.676;23.262;2023-04-30T00:33:54;94265.91;;;11.14;100.00
12077;BME280;12420;42.676;23.262;2023-04-30T00:36:21;94276.38;;;11.08;100.00
12077;BME280;12420;42.676;23.262;2023-04-30T00:38:49;94278.94;;;11.06;100.00
12077;BME280;12420;42.676;23.262;2023-04-30T00:41:16;94279.69;;;11.06;100.00
12077;BME280;12420;42.676;23.262;2023-04-30T00:43:43;94258.47;;;11.09;100.00
12077;BME280;12420;42.676;23.262;2023-04-30T00:46:11;94275.13;;;11.30;100.00
12077;BME280;12420;42.676;23.262;2023-04-30T00:48:38;94270.69;;;11.35;100.00
12077;BME280;12420;42.676;23.262;2023-04-30T00:51:05;94268.28;;;11.31;100.00
12077;BME280;12420;42.676;23.262;2023-04-30T00:53:32;94263.47;;;11.32;100.00
12077;BME280;12420;42.676;23.262;2023-04-30T00:56:02;94267.13;;;11.26;100.00
12077;BME280;12420;42.676;23.262;2023-04-30T00:58:30;94267.81;;;11.40;100.00
12077;BME280;12420;42.676;23.262;2023-04-30T01:00:57;94241.59;;;11.20;100.00
12077;BME280;12420;42.676;23.262;2023-04-30T01:03:24;94257.06;;;11.37;100.00
12077;BME280;12420;42.676;23.262;2023-04-30T01:05:51;94261.66;;;11.34;100.00
12077;BME280;12420;42.676;23.262;2023-04-30T01:08:18;94263.16;;;11.35;100.00
12077;BME280;12420;42.676;23.262;2023-04-30T01:10:52;94256.78;;;11.27;100.00
12077;BME280;12420;42.676;23.262;2023-04-30T01:13:27;94254.34;;;11.23;100.00
12077;BME280;12420;42.676;23.262;2023-04-30T01:15:59;94248.00;;;11.15;100.00
12077;BME280;12420;42.676;23.262;2023-04-30T01:18:30;94266.38;;;11.05;100.00
12077;BME280;12420;42.676;23.262;2023-04-30T01:21:03;94265.72;;;11.12;100.00
12077;BME280;12420;42.676;23.262;2023-04-30T01:23:53;94256.03;;;11.05;100.00
12077;BME280;12420;42.676;23.262;2023-04-30T01:26:37;94152.13;;;10.28;100.00
12077;BME280;12420;42.676;23.262;2023-04-30T01:29:13;94254.72;;;10.85;100.00
12077;BME280;12420;42.676;23.262;2023-04-30T01:31:42;94223.53;;;10.64;100.00
12077;BME280;12420;42.676;23.262;2023-04-30T01:34:10;94265.81;;;10.85;100.00
12077;BME280;12420;42.676;23.262;2023-04-30T01:36:49;94265.59;;;10.83;100.00
12077;BME280;12420;42.676;23.262;2023-04-30T01:39:30;94259.88;;;10.81;100.00
12077;BME280;12420;42.676;23.262;2023-04-30T01:42:06;94261.75;;;10.52;100.00
12077;BME280;12420;42.676;23.262;2023-04-30T01:44:48;94263.09;;;10.72;100.00
12077;BME280;12420;42.676;23.262;2023-04-30T01:47:26;94267.53;;;10.75;100.00
12077;BME280;12420;42.676;23.262;2023-04-30T01:50:04;94231.66;;;10.49;100.00
12077;BME280;12420;42.676;23.262;2023-04-30T01:52:38;94260.53;;;10.74;100.00
12077;BME280;12420;42.676;23.262;2023-04-30T01:55:09;94270.59;;;10.85;100.00
12077;BME280;12420;42.676;23.262;2023-04-30T01:57:42;94267.31;;;10.86;100.00
12077;BME280;12420;42.676;23.262;2023-04-30T02:00:13;94268.78;;;10.88;100.00
12077;BME280;12420;42.676;23.262;2023-04-30T02:02:42;94273.91;;;10.83;100.00
12077;BME280;12420;42.676;23.262;2023-04-30T02:05:09;94270.31;;;10.75;100.00
12077;BME280;12420;42.676;23.262;2023-04-30T02:07:38;94242.25;;;10.58;100.00
12077;BME280;12420;42.676;23.262;2023-04-30T02:10:07;94271.53;;;10.67;100.00
12077;BME280;12420;42.676;23.262;2023-04-30T02:12:34;94259.81;;;10.60;100.00
12077;BME280;12420;42.676;23.262;2023-04-30T02:15:01;94268.00;;;10.66;100.00
12077;BME280;12420;42.676;23.262;2023-04-30T02:17:29;94261.41;;;10.69;100.00
12077;BME280;12420;42.676;23.262;2023-04-30T02:19:56;94257.59;;;10.59;100.00
12077;BME280;12420;42.676;23.262;2023-04-30T02:22:23;94259.72;;;10.66;100.00
12077;BME280;12420;42.676;23.262;2023-04-30T02:24:50;94268.84;;;10.74;100.00
12077;BME280;12420;42.676;23.262;2023-04-30T02:27:20;94258.84;;;10.71;100.00
12077;BME280;12420;42.676;23.262;2023-04-30T02:29:47;94263.34;;;10.61;100.00
12077;BME280;12420;42.676;23.262;2023-04-30T02:32:14;94256.72;;;10.64;100.00
12077;BME280;12420;42.676;23.262;2023-04-30T02:34:42;94259.28;;;10.62;100.00
12077;BME280;12420;42.676;23.262;2023-04-30T02:37:09;94247.91;;;10.52;100.00
12077;BME280;12420;42.676;23.262;2023-04-30T02:39:36;94256.66;;;10.56;100.00
12077;BME280;12420;42.676;23.262;2023-04-30T02:42:03;94259.28;;;10.62;100.00
12077;BME280;12420;42.676;23.262;2023-04-30T02:44:31;94248.00;;;10.60;100.00
12077;BME280;12420;42.676;23.262;2023-04-30T02:46:58;94257.13;;;10.68;100.00
12077;BME280;12420;42.676;23.262;2023-04-30T02:49:25;94231.88;;;10.51;100.00
12077;BME280;12420;42.676;23.262;2023-04-30T02:51:53;94232.69;;;10.59;100.00
12077;BME280;12420;42.676;23.262;2023-04-30T02:54:20;94239.97;;;10.49;100.00
12077;BME280;12420;42.676;23.262;2023-04-30T02:56:47;94268.38;;;10.83;100.00
12077;BME280;12420;42.676;23.262;2023-04-30T02:59:13;94271.22;;;10.91;100.00
12077;BME280;12420;42.676;23.262;2023-04-30T03:01:40;94281.63;;;10.98;100.00
12077;BME280;12420;42.676;23.262;2023-04-30T03:04:07;94272.06;;;10.99;100.00
12077;BME280;12420;42.676;23.262;2023-04-30T03:06:34;94267.13;;;11.05;100.00
12077;BME280;12420;42.676;23.262;2023-04-30T03:09:03;94274.75;;;11.13;100.00
12077;BME280;12420;42.676;23.262;2023-04-30T03:11:30;94275.84;;;11.10;100.00
12077;BME280;12420;42.676;23.262;2023-04-30T03:13:58;94281.03;;;11.13;100.00
12077;BME280;12420;42.676;23.262;2023-04-30T03:16:24;94285.50;;;11.16;100.00
12077;BME280;12420;42.676;23.262;2023-04-30T03:18:51;94280.91;;;11.19;100.00
12077;BME280;12420;42.676;23.262;2023-04-30T03:21:18;94289.78;;;11.17;100.00
12077;BME280;12420;42.676;23.262;2023-04-30T03:23:44;94291.03;;;11.16;100.00
12077;BME280;12420;42.676;23.262;2023-04-30T03:26:13;94293.81;;;11.16;100.00
12077;BME280;12420;42.676;23.262;2023-04-30T03:28:40;94283.81;;;11.13;100.00
12077;BME280;12420;42.676;23.262;2023-04-30T03:31:07;94280.16;;;11.18;100.00
12077;BME280;12420;42.676;23.262;2023-04-30T03:33:33;94275.72;;;11.15;100.00
12077;BME280;12420;42.676;23.262;2023-04-30T03:36:00;94291.25;;;11.18;100.00
12077;BME280;12420;42.676;23.262;2023-04-30T03:38:27;94278.06;;;11.11;100.00
12077;BME280;12420;42.676;23.262;2023-04-30T03:40:54;94300.38;;;11.26;100.00
12077;BME280;12420;42.676;23.262;2023-04-30T03:43:22;94284.22;;;11.17;100.00
12077;BME280;12420;42.676;23.262;2023-04-30T03:45:49;94303.56;;;11.30;100.00
12077;BME280;12420;42.676;23.262;2023-04-30T03:48:17;94302.88;;;11.38;100.00
12077;BME280;12420;42.676;23.262;2023-04-30T03:50:46;94305.44;;;11.36;100.00
12077;BME280;12420;42.676;23.262;2023-04-30T03:53:12;94317.28;;;11.36;100.00
12077;BME280;12420;42.676;23.262;2023-04-30T03:55:39;94316.25;;;11.47;100.00
12077;BME280;12420;42.676;23.262;2023-04-30T03:58:06;94303.16;;;11.47;100.00
12077;BME280;12420;42.676;23.262;2023-04-30T04:00:35;94316.00;;;11.58;100.00
12077;BME280;12420;42.676;23.262;2023-04-30T04:03:02;94305.59;;;11.51;100.00
12077;BME280;12420;42.676;23.262;2023-04-30T04:05:29;94322.19;;;11.72;100.00
12077;BME280;12420;42.676;23.262;2023-04-30T04:07:56;94325.78;;;11.80;100.00
12077;BME280;12420;42.676;23.262;2023-04-30T04:10:23;94321.63;;;11.87;100.00
12077;BME280;12420;42.676;23.262;2023-04-30T04:12:50;94300.59;;;11.70;100.00
12077;BME280;12420;42.676;23.262;2023-04-30T04:15:16;94333.56;;;12.03;100.00
12077;BME280;12420;42.676;23.262;2023-04-30T04:17:44;94327.47;;;12.04;100.00
12077;BME280;12420;42.676;23.262;2023-04-30T04:20:13;94327.84;;;12.08;100.00
12077;BME280;12420;42.676;23.262;2023-04-30T04:22:40;94301.84;;;11.90;100.00
12077;BME280;12420;42.676;23.262;2023-04-30T04:25:07;94326.44;;;12.15;100.00
12077;BME280;12420;42.676;23.262;2023-04-30T04:27:34;94330.88;;;12.18;100.00
12077;BME280;12420;42.676;23.262;2023-04-30T04:30:01;94335.34;;;12.21;100.00
12077;BME280;12420;42.676;23.262;2023-04-30T04:32:28;94211.50;;;11.24;100.00
12077;BME280;12420;42.676;23.262;2023-04-30T04:34:58;94327.41;;;11.97;100.00
12077;BME280;12420;42.676;23.262;2023-04-30T04:37:25;94322.50;;;12.10;100.00
12077;BME280;12420;42.676;23.262;2023-04-30T04:39:54;94352.25;;;12.31;100.00
12077;BME280;12420;42.676;23.262;2023-04-30T04:42:20;94325.66;;;12.07;100.00
12077;BME280;12420;42.676;23.262;2023-04-30T04:44:47;94341.69;;;12.29;100.00
12077;BME280;12420;42.676;23.262;2023-04-30T04:47:14;94347.66;;;12.41;100.00
12077;BME280;12420;42.676;23.262;2023-04-30T04:49:44;94358.78;;;12.41;100.00
12077;BME280;12420;42.676;23.262;2023-04-30T04:52:13;94317.91;;;12.13;100.00
12077;BME280;12420;42.676;23.262;2023-04-30T04:54:39;94351.25;;;12.49;100.00
12077;BME280;12420;42.676;23.262;2023-04-30T04:57:06;94333.63;;;12.39;100.00
12077;BME280;12420;42.676;23.262;2023-04-30T04:59:33;94364.09;;;12.60;100.00
12077;BME280;12420;42.676;23.262;2023-04-30T05:02:00;94364.97;;;12.55;100.00
12077;BME280;12420;42.676;23.262;2023-04-30T05:04:26;94371.34;;;12.34;100.00
12077;BME280;12420;42.676;23.262;2023-04-30T05:06:54;94329.34;;;12.38;100.00
12077;BME280;12420;42.676;23.262;2023-04-30T05:09:22;94322.16;;;12.43;100.00
12077;BME280;12420;42.676;23.262;2023-04-30T05:11:49;94351.19;;;12.70;100.00
12077;BME280;12420;42.676;23.262;2023-04-30T05:14:16;94361.72;;;12.72;100.00
12077;BME280;12420;42.676;23.262;2023-04-30T05:16:43;94362.69;;;12.82;100.00
12077;BME280;12420;42.676;23.262;2023-04-30T05:19:11;94358.06;;;12.85;100.00
12077;BME280;12420;42.676;23.262;2023-04-30T05:21:38;94312.19;;;12.47;100.00
12077;BME280;12420;42.676;23.262;2023-04-30T05:24:06;94337.84;;;12.69;100.00
12077;BME280;12420;42.676;23.262;2023-04-30T05:26:36;94360.81;;;12.77;100.00
12077;BME280;12420;42.676;23.262;2023-04-30T05:29:03;94345.16;;;12.51;100.00
12077;BME280;12420;42.676;23.262;2023-04-30T05:31:30;94372.16;;;12.50;100.00
12077;BME280;12420;42.676;23.262;2023-04-30T05:33:57;94316.59;;;12.06;100.00
12077;BME280;12420;42.676;23.262;2023-04-30T05:36:24;94357.66;;;12.36;100.00
12077;BME280;12420;42.676;23.262;2023-04-30T05:38:50;94365.84;;;12.42;100.00
12077;BME280;12420;42.676;23.262;2023-04-30T05:41:17;94331.69;;;12.26;100.00
12077;BME280;12420;42.676;23.262;2023-04-30T05:43:46;94367.06;;;12.62;100.00
12077;BME280;12420;42.676;23.262;2023-04-30T05:46:13;94346.84;;;12.62;100.00
12077;BME280;12420;42.676;23.262;2023-04-30T05:48:39;94365.22;;;12.65;100.00
12077;BME280;12420;42.676;23.262;2023-04-30T05:51:06;94357.84;;;12.67;100.00
12077;BME280;12420;42.676;23.262;2023-04-30T05:53:34;94360.03;;;12.69;100.00
12077;BME280;12420;42.676;23.262;2023-04-30T05:56:02;94340.72;;;12.55;100.00
12077;BME280;12420;42.676;23.262;2023-04-30T05:58:29;94364.91;;;12.76;100.00
12077;BME280;12420;42.676;23.262;2023-04-30T06:00:59;94381.78;;;12.86;100.00
12077;BME280;12420;42.676;23.262;2023-04-30T06:03:26;94372.00;;;12.92;100.00
12077;BME280;12420;42.676;23.262;2023-04-30T06:05:53;94375.16;;;12.96;100.00
12077;BME280;12420;42.676;23.262;2023-04-30T06:08:19;94374.06;;;12.99;100.00
12077;BME280;12420;42.676;23.262;2023-04-30T06:10:46;94381.13;;;13.00;100.00
12077;BME280;12420;42.676;23.262;2023-04-30T06:13:13;94316.72;;;12.66;100.00
12077;BME280;12420;42.676;23.262;2023-04-30T06:15:40;94344.28;;;13.08;100.00
12077;BME280;12420;42.676;23.262;2023-04-30T06:18:09;94370.69;;;13.30;100.00
12077;BME280;12420;42.676;23.262;2023-04-30T06:20:38;94392.41;;;13.39;100.00
12077;BME280;12420;42.676;23.262;2023-04-30T06:23:05;94358.13;;;13.36;100.00
12077;BME280;12420;42.676;23.262;2023-04-30T06:25:31;94357.75;;;13.40;100.00
12077;BME280;12420;42.676;23.262;2023-04-30T06:27:58;94387.81;;;13.64;100.00
12077;BME280;12420;42.676;23.262;2023-04-30T06:30:25;94380.03;;;13.63;100.00
12077;BME280;12420;42.676;23.262;2023-04-30T06:32:52;94394.50;;;13.69;99.63
12077;BME280;12420;42.676;23.262;2023-04-30T06:35:21;94396.19;;;13.72;100.00
12077;BME280;12420;42.676;23.262;2023-04-30T06:37:48;94386.19;;;13.69;100.00
12077;BME280;12420;42.676;23.262;2023-04-30T06:40:15;94387.28;;;13.74;100.00
12077;BME280;12420;42.676;23.262;2023-04-30T06:42:42;94379.72;;;13.89;100.00
12077;BME280;12420;42.676;23.262;2023-04-30T06:45:09;94339.81;;;13.79;98.70
12077;BME280;12420;42.676;23.262;2023-04-30T06:47:36;94388.78;;;14.44;96.15
12077;BME280;12420;42.676;23.262;2023-04-30T06:50:04;94359.47;;;14.43;94.81
12077;BME280;12420;42.676;23.262;2023-04-30T06:52:32;94349.97;;;14.69;92.76
12077;BME280;12420;42.676;23.262;2023-04-30T06:54:59;94380.75;;;14.79;91.13
12077;BME280;12420;42.676;23.262;2023-04-30T06:57:25;94381.38;;;15.17;90.93
12077;BME280;12420;42.676;23.262;2023-04-30T06:59:52;94403.94;;;15.45;89.90
12077;BME280;12420;42.676;23.262;2023-04-30T07:02:19;94408.31;;;15.63;89.14
12077;BME280;12420;42.676;23.262;2023-04-30T07:04:46;94399.94;;;15.63;86.82
12077;BME280;12420;42.676;23.262;2023-04-30T07:07:13;94406.25;;;15.63;86.85
12077;BME280;12420;42.676;23.262;2023-04-30T07:09:42;94408.25;;;15.78;88.70
12077;BME280;12420;42.676;23.262;2023-04-30T07:12:09;94402.25;;;15.82;87.56
12077;BME280;12420;42.676;23.262;2023-04-30T07:14:37;94403.72;;;15.91;86.36
12077;BME280;12420;42.676;23.262;2023-04-30T07:17:04;94407.34;;;16.01;87.46
12077;BME280;12420;42.676;23.262;2023-04-30T07:19:31;94402.56;;;15.94;81.91
12077;BME280;12420;42.676;23.262;2023-04-30T07:21:58;94405.44;;;15.78;82.05
12077;BME280;12420;42.676;23.262;2023-04-30T07:24:25;94392.66;;;15.68;84.12
12077;BME280;12420;42.676;23.262;2023-04-30T07:26:53;94403.25;;;16.02;83.40
12077;BME280;12420;42.676;23.262;2023-04-30T07:29:20;94404.34;;;16.06;81.92
12077;BME280;12420;42.676;23.262;2023-04-30T07:31:47;94408.78;;;16.10;80.14
12077;BME280;12420;42.676;23.262;2023-04-30T07:34:14;94400.22;;;16.08;78.44
12077;BME280;12420;42.676;23.262;2023-04-30T07:36:40;94415.84;;;16.11;83.07
12077;BME280;12420;42.676;23.262;2023-04-30T07:39:07;94396.16;;;15.76;82.37
12077;BME280;12420;42.676;23.262;2023-04-30T07:41:36;94414.81;;;15.98;83.65
12077;BME280;12420;42.676;23.262;2023-04-30T07:44:04;94425.97;;;15.98;83.12
12077;BME280;12420;42.676;23.262;2023-04-30T07:46:31;94414.34;;;16.10;81.44
12077;BME280;12420;42.676;23.262;2023-04-30T07:48:58;94418.94;;;15.90;79.73
12077;BME280;12420;42.676;23.262;2023-04-30T07:51:24;94419.91;;;15.84;80.90
12077;BME280;12420;42.676;23.262;2023-04-30T07:53:52;94412.38;;;15.70;78.84
12077;BME280;12420;42.676;23.262;2023-04-30T07:56:18;94412.38;;;15.70;78.71
12077;BME280;12420;42.676;23.262;2023-04-30T07:58:47;94400.78;;;15.40;78.47
12077;BME280;12420;42.676;23.262;2023-04-30T08:01:15;94418.91;;;15.57;78.39
12077;BME280;12420;42.676;23.262;2023-04-30T08:03:42;94405.41;;;15.46;77.83
12077;BME280;12420;42.676;23.262;2023-04-30T08:06:09;94416.66;;;15.71;78.50
12077;BME280;12420;42.676;23.262;2023-04-30T08:08:36;94425.72;;;15.79;78.47
12077;BME280;12420;42.676;23.262;2023-04-30T08:11:04;94425.28;;;15.90;77.22
12077;BME280;12420;42.676;23.262;2023-04-30T08:13:30;94427.59;;;15.76;75.08
12077;BME280;12420;42.676;23.262;2023-04-30T08:15:57;94420.00;;;15.69;75.90
12077;BME280;12420;42.676;23.262;2023-04-30T08:18:25;94428.00;;;15.73;76.52
12077;BME280;12420;42.676;23.262;2023-04-30T08:20:52;94414.72;;;15.81;76.19
12077;BME280;12420;42.676;23.262;2023-04-30T08:23:22;94429.16;;;16.20;73.53
12077;BME280;12420;42.676;23.262;2023-04-30T08:25:48;94434.69;;;16.27;73.40
12077;BME280;12420;42.676;23.262;2023-04-30T08:28:16;94410.81;;;16.34;72.88
12077;BME280;12420;42.676;23.262;2023-04-30T08:30:43;94417.56;;;16.31;69.32
12077;BME280;12420;42.676;23.262;2023-04-30T08:33:10;94423.22;;;16.41;69.87
12077;BME280;12420;42.676;23.262;2023-04-30T08:35:39;94424.91;;;16.44;68.39
12077;BME280;12420;42.676;23.262;2023-04-30T08:38:05;94425.91;;;16.56;65.90
12077;BME280;12420;42.676;23.262;2023-04-30T08:40:34;94422.09;;;16.69;66.28
12077;BME280;12420;42.676;23.262;2023-04-30T08:43:04;94426.31;;;16.78;62.80
12077;BME280;12420;42.676;23.262;2023-04-30T08:45:32;94424.28;;;16.70;62.97
12077;BME280;12420;42.676;23.262;2023-04-30T08:48:00;94424.50;;;16.90;64.43
12077;BME280;12420;42.676;23.262;2023-04-30T08:50:27;94422.09;;;16.86;62.65
12077;BME280;12420;42.676;23.262;2023-04-30T08:52:56;94423.53;;;16.95;61.42
12077;BME280;12420;42.676;23.262;2023-04-30T08:55:24;94419.91;;;16.85;62.20
12077;BME280;12420;42.676;23.262;2023-04-30T08:57:52;94392.34;;;16.81;62.41
12077;BME280;12420;42.676;23.262;2023-04-30T09:00:18;94405.00;;;17.17;61.94
12077;BME280;12420;42.676;23.262;2023-04-30T09:02:47;94408.72;;;17.64;61.16
12077;BME280;12420;42.676;23.262;2023-04-30T09:05:15;94404.84;;;18.04;61.90
12077;BME280;12420;42.676;23.262;2023-04-30T09:07:43;94394.78;;;18.01;56.92
12077;BME280;12420;42.676;23.262;2023-04-30T09:10:15;94391.50;;;18.22;57.67
12077;BME280;12420;42.676;23.262;2023-04-30T09:12:43;94341.56;;;17.91;56.01
12077;BME280;12420;42.676;23.262;2023-04-30T09:15:11;94341.13;;;17.68;56.35
12077;BME280;12420;42.676;23.262;2023-04-30T09:17:38;94390.91;;;17.87;56.77
12077;BME280;12420;42.676;23.262;2023-04-30T09:20:06;94373.66;;;18.17;58.25
12077;BME280;12420;42.676;23.262;2023-04-30T09:22:34;94380.63;;;18.36;56.38
12077;BME280;12420;42.676;23.262;2023-04-30T09:25:02;94325.56;;;18.11;54.93
12077;BME280;12420;42.676;23.262;2023-04-30T09:27:30;94375.91;;;18.38;55.49
12077;BME280;12420;42.676;23.262;2023-04-30T09:29:57;94374.44;;;18.37;55.82
12077;BME280;12420;42.676;23.262;2023-04-30T09:32:24;94364.28;;;18.42;55.46
12077;BME280;12420;42.676;23.262;2023-04-30T09:34:51;94350.47;;;18.73;56.36
12077;BME280;12420;42.676;23.262;2023-04-30T09:37:18;94358.63;;;19.18;53.85
12077;BME280;12420;42.676;23.262;2023-04-30T09:39:53;94360.94;;;19.41;53.34
12077;BME280;12420;42.676;23.262;2023-04-30T09:42:22;94354.28;;;19.75;53.77
12077;BME280;12420;42.676;23.262;2023-04-30T09:44:52;94350.22;;;19.98;53.86
12077;BME280;12420;42.676;23.262;2023-04-30T09:47:19;94346.81;;;19.89;49.46
12077;BME280;12420;42.676;23.262;2023-04-30T09:49:47;94349.22;;;19.83;48.32
12077;BME280;12420;42.676;23.262;2023-04-30T09:52:16;94346.41;;;19.83;49.64
12077;BME280;12420;42.676;23.262;2023-04-30T09:54:44;94342.59;;;19.69;50.11
12077;BME280;12420;42.676;23.262;2023-04-30T09:57:13;94345.22;;;19.86;49.67
12077;BME280;12420;42.676;23.262;2023-04-30T09:59:43;94332.44;;;19.54;49.63
12077;BME280;12420;42.676;23.262;2023-04-30T10:02:13;94339.78;;;19.69;50.16
12077;BME280;12420;42.676;23.262;2023-04-30T10:04:43;94342.00;;;19.61;49.52
12077;BME280;12420;42.676;23.262;2023-04-30T10:07:13;94338.34;;;19.48;49.17
12077;BME280;12420;42.676;23.262;2023-04-30T10:09:47;94335.06;;;19.71;49.37
12077;BME280;12420;42.676;23.262;2023-04-30T10:12:15;94333.13;;;19.74;50.31
12077;BME280;12420;42.676;23.262;2023-04-30T10:14:54;94323.69;;;19.60;48.58
12077;BME280;12420;42.676;23.262;2023-04-30T10:17:26;94347.03;;;19.62;49.33
12077;BME280;12420;42.676;23.262;2023-04-30T10:19:57;94351.78;;;19.50;50.29
12077;BME280;12420;42.676;23.262;2023-04-30T10:22:25;94340.69;;;18.45;55.67
12077;BME280;12420;42.676;23.262;2023-04-30T10:24:52;94380.78;;;18.38;59.48
12077;BME280;12420;42.676;23.262;2023-04-30T10:27:19;94376.16;;;17.59;62.06
12077;BME280;12420;42.676;23.262;2023-04-30T10:29:46;94392.34;;;16.81;77.40
12077;BME280;12420;42.676;23.262;2023-04-30T10:32:14;94391.41;;;16.61;80.05
12077;BME280;12420;42.676;23.262;2023-04-30T10:34:48;94380.28;;;16.36;86.55
12077;BME280;12420;42.676;23.262;2023-04-30T10:37:26;94387.06;;;16.25;91.51
12077;BME280;12420;42.676;23.262;2023-04-30T10:39:56;94379.97;;;16.49;91.40
12077;BME280;12420;42.676;23.262;2023-04-30T10:42:23;94374.13;;;16.55;90.67
12077;BME280;12420;42.676;23.262;2023-04-30T10:44:50;94374.09;;;16.80;86.91
12077;BME280;12420;42.676;23.262;2023-04-30T10:47:17;94357.03;;;16.68;77.39
12077;BME280;12420;42.676;23.262;2023-04-30T10:49:46;94352.09;;;16.84;82.73
12077;BME280;12420;42.676;23.262;2023-04-30T10:52:25;94365.28;;;17.01;79.95
12077;BME280;12420;42.676;23.262;2023-04-30T10:54:52;94348.16;;;17.14;77.96
12077;BME280;12420;42.676;23.262;2023-04-30T10:57:20;94344.78;;;17.33;71.76
12077;BME280;12420;42.676;23.262;2023-04-30T10:59:51;94351.16;;;17.44;68.03
12077;BME280;12420;42.676;23.262;2023-04-30T11:02:18;94347.69;;;17.53;65.22
12077;BME280;12420;42.676;23.262;2023-04-30T11:05:10;94347.47;;;17.68;62.22
12077;BME280;12420;42.676;23.262;2023-04-30T11:07:37;94343.38;;;17.96;61.08
12077;BME280;12420;42.676;23.262;2023-04-30T11:10:12;94344.78;;;18.25;60.45
12077;BME280;12420;42.676;23.262;2023-04-30T11:12:40;94344.09;;;18.53;58.95
12077;BME280;12420;42.676;23.262;2023-04-30T11:15:13;94326.41;;;18.70;60.96
12077;BME280;12420;42.676;23.262;2023-04-30T11:17:42;94348.88;;;18.90;57.91
12077;BME280;12420;42.676;23.262;2023-04-30T11:20:15;94329.50;;;18.64;60.15
12077;BME280;12420;42.676;23.262;2023-04-30T11:22:45;94352.66;;;18.75;53.42
12077;BME280;12420;42.676;23.262;2023-04-30T11:25:18;94336.88;;;18.70;56.10
12077;BME280;12420;42.676;23.262;2023-04-30T11:27:46;94303.97;;;18.51;55.60
12077;BME280;12420;42.676;23.262;2023-04-30T11:30:15;94340.59;;;18.82;54.75
12077;BME280;12420;42.676;23.262;2023-04-30T11:32:44;94309.16;;;18.74;53.84
12077;BME280;12420;42.676;23.262;2023-04-30T11:35:16;94340.63;;;18.92;53.71
12077;BME280;12420;42.676;23.262;2023-04-30T11:37:43;94335.00;;;18.92;52.21
12077;BME280;12420;42.676;23.262;2023-04-30T11:40:12;94348.28;;;18.91;53.60
12077;BME280;12420;42.676;23.262;2023-04-30T11:42:40;94333.22;;;18.86;53.07
12077;BME280;12420;42.676;23.262;2023-04-30T11:45:09;94334.13;;;18.79;53.18
12077;BME280;12420;42.676;23.262;2023-04-30T11:47:40;94318.56;;;18.49;53.92
12077;BME280;12420;42.676;23.262;2023-04-30T11:50:07;94306.03;;;18.50;56.25
12077;BME280;12420;42.676;23.262;2023-04-30T11:52:36;94312.41;;;18.70;54.75
12077;BME280;12420;42.676;23.262;2023-04-30T11:55:12;94331.03;;;19.04;59.85
12077;BME280;12420;42.676;23.262;2023-04-30T11:57:40;94324.38;;;19.19;62.85
12077;BME280;12420;42.676;23.262;2023-04-30T12:00:12;94313.72;;;19.08;60.27
12077;BME280;12420;42.676;23.262;2023-04-30T12:02:39;94309.13;;;19.32;57.63
12077;BME280;12420;42.676;23.262;2023-04-30T12:05:12;94314.41;;;19.57;56.69
12077;BME280;12420;42.676;23.262;2023-04-30T12:07:46;94313.69;;;19.47;56.42
12077;BME280;12420;42.676;23.262;2023-04-30T12:10:13;94320.81;;;19.28;56.29
12077;BME280;12420;42.676;23.262;2023-04-30T12:12:41;94325.09;;;19.10;59.16
12077;BME280;12420;42.676;23.262;2023-04-30T12:15:16;94330.72;;;19.10;63.05
12077;BME280;12420;42.676;23.262;2023-04-30T12:17:43;94328.06;;;18.93;63.03
12077;BME280;12420;42.676;23.262;2023-04-30T12:20:11;94320.69;;;18.78;61.83
12077;BME280;12420;42.676;23.262;2023-04-30T12:22:39;94342.78;;;18.74;63.34
12077;BME280;12420;42.676;23.262;2023-04-30T12:25:11;94357.78;;;18.30;64.25
12077;BME280;12420;42.676;23.262;2023-04-30T12:27:40;94352.44;;;17.87;67.06
12077;BME280;12420;42.676;23.262;2023-04-30T12:30:08;94358.03;;;17.60;66.12
12077;BME280;12420;42.676;23.262;2023-04-30T12:32:39;94370.56;;;17.59;67.57
12077;BME280;12420;42.676;23.262;2023-04-30T12:35:08;94345.41;;;17.42;69.88
12077;BME280;12420;42.676;23.262;2023-04-30T12:37:40;94353.88;;;17.51;70.36
12077;BME280;12420;42.676;23.262;2023-04-30T12:40:10;94360.88;;;17.43;73.00
12077;BME280;12420;42.676;23.262;2023-04-30T12:42:40;94337.88;;;17.17;74.75
12077;BME280;12420;42.676;23.262;2023-04-30T12:45:08;94355.63;;;17.02;77.12
12077;BME280;12420;42.676;23.262;2023-04-30T12:47:37;94359.25;;;17.22;77.62
12077;BME280;12420;42.676;23.262;2023-04-30T12:50:08;94360.22;;;17.07;78.75
12077;BME280;12420;42.676;23.262;2023-04-30T12:52:35;94371.03;;;17.38;76.95